createdAt,value
2023-02-07T00:01:26.413Z,77.85
2023-02-07T00:03:55.161Z,77.08
2023-02-07T00:06:24.928Z,76.46
2023-02-07T00:08:52.329Z,75.29
2023-02-07T00:11:20.259Z,73.56
2023-02-07T00:13:49.676Z,74.83
2023-02-07T00:16:19.327Z,74.16
2023-02-07T00:18:46.778Z,73.82
2023-02-07T00:21:16.227Z,74.63
2023-02-07T00:23:43.372Z,73.82
2023-02-07T00:26:10.950Z,74.12
2023-02-07T00:28:38.005Z,74.56
2023-02-07T00:31:10.404Z,74.82
2023-02-07T00:33:38.624Z,74.70
2023-02-07T00:36:08.650Z,73.87
2023-02-07T00:38:35.683Z,73.55
2023-02-07T00:41:02.634Z,73.54
2023-02-07T00:43:32.883Z,74.61
2023-02-07T00:46:02.409Z,75.31
2023-02-07T00:48:30.418Z,78.89
2023-02-07T00:50:58.059Z,80.09
2023-02-07T00:53:25.384Z,81.01
2023-02-07T00:55:52.509Z,81.46
2023-02-07T00:58:19.145Z,81.84
2023-02-07T01:00:46.165Z,82.82
2023-02-07T01:03:13.265Z,80.14
2023-02-07T01:05:40.079Z,76.85
2023-02-07T01:08:06.882Z,75.92
2023-02-07T01:10:35.709Z,74.35
2023-02-07T01:13:02.298Z,74.76
2023-02-07T01:15:28.981Z,74.67
2023-02-07T01:17:55.618Z,74.44
2023-02-07T01:20:22.250Z,73.79
2023-02-07T01:22:48.958Z,73.82
2023-02-07T01:25:15.582Z,73.05
2023-02-07T01:27:42.208Z,73.03
2023-02-07T01:30:09.386Z,73.99
2023-02-07T01:32:36.044Z,73.41
2023-02-07T01:35:02.852Z,72.83
2023-02-07T01:37:29.492Z,72.96
2023-02-07T01:39:56.181Z,72.89
2023-02-07T01:42:25.512Z,73.15
2023-02-07T01:44:52.090Z,71.61
2023-02-07T01:47:21.780Z,72.77
2023-02-07T01:49:49.514Z,72.97
2023-02-07T01:52:23.275Z,73.40
2023-02-07T01:54:53.614Z,72.59
2023-02-07T01:57:22.323Z,72.53
2023-02-07T01:59:52.656Z,72.14
2023-02-07T02:02:22.035Z,72.67
2023-02-07T02:04:50.419Z,72.71
2023-02-07T02:07:18.060Z,72.53
2023-02-07T02:09:44.783Z,72.25
2023-02-07T02:12:23.557Z,71.96
2023-02-07T02:15:18.321Z,71.86
2023-02-07T02:18:15.266Z,72.59
2023-02-07T02:21:03.531Z,72.38
2023-02-07T02:23:39.296Z,72.14
2023-02-07T02:26:16.867Z,71.46
2023-02-07T02:29:25.446Z,72.28
2023-02-07T02:31:58.059Z,70.65
2023-02-07T02:34:25.963Z,70.61
2023-02-07T02:36:57.599Z,70.27
2023-02-07T02:39:32.585Z,69.93
2023-02-07T02:42:10.956Z,71.13
2023-02-07T02:44:49.437Z,71.54
2023-02-07T02:47:17.155Z,70.47
2023-02-07T02:49:47.134Z,71.42
2023-02-07T02:52:13.774Z,70.81
2023-02-07T02:54:41.880Z,71.59
2023-02-07T02:57:30.846Z,71.80
2023-02-07T03:00:09.662Z,71.71
2023-02-07T03:02:39.270Z,71.32
2023-02-07T03:05:24.298Z,70.55
2023-02-07T03:08:05.159Z,70.74
2023-02-07T03:10:42.607Z,70.95
2023-02-07T03:13:37.449Z,69.86
2023-02-07T03:16:13.662Z,69.83
2023-02-07T03:18:57.419Z,69.30
2023-02-07T03:21:41.941Z,69.55
2023-02-07T03:24:19.588Z,69.64
2023-02-07T03:26:48.667Z,68.40
2023-02-07T03:29:16.665Z,67.98
2023-02-07T03:31:45.904Z,67.92
2023-02-07T03:34:16.941Z,68.86
2023-02-07T03:36:51.642Z,68.77
2023-02-07T03:39:18.460Z,68.42
2023-02-07T03:41:58.988Z,69.23
2023-02-07T03:44:27.570Z,69.50
2023-02-07T03:46:54.786Z,68.97
2023-02-07T03:49:21.608Z,68.10
2023-02-07T03:51:48.539Z,69.27
2023-02-07T03:54:15.140Z,68.74
2023-02-07T03:56:41.793Z,68.52
2023-02-07T03:59:08.639Z,68.74
2023-02-07T04:01:40.698Z,68.00
2023-02-07T04:04:11.231Z,68.80
2023-02-07T04:06:38.119Z,68.22
2023-02-07T04:09:04.900Z,68.08
2023-02-07T04:11:31.630Z,68.57
2023-02-07T04:13:58.282Z,68.17
2023-02-07T04:16:25.645Z,68.45
2023-02-07T04:18:52.293Z,67.58
2023-02-07T04:21:18.884Z,67.26
2023-02-07T04:23:45.782Z,67.91
2023-02-07T04:26:12.513Z,68.19
2023-02-07T04:28:39.242Z,68.57
2023-02-07T04:31:05.834Z,67.73
2023-02-07T04:33:32.433Z,68.33
2023-02-07T04:36:01.138Z,69.63
2023-02-07T04:38:28.601Z,69.94
2023-02-07T04:41:04.175Z,68.39
2023-02-07T04:43:33.914Z,67.98
2023-02-07T04:46:03.793Z,68.56
2023-02-07T04:48:30.945Z,67.34
2023-02-07T04:50:57.571Z,68.48
2023-02-07T04:53:24.334Z,69.48
2023-02-07T04:55:52.405Z,69.91
2023-02-07T04:58:20.224Z,70.69
2023-02-07T05:00:47.515Z,71.74
2023-02-07T05:03:14.623Z,70.78
2023-02-07T05:05:42.158Z,70.18
2023-02-07T05:08:09.668Z,70.10
2023-02-07T05:10:37.050Z,69.91
2023-02-07T05:13:03.917Z,67.91
2023-02-07T05:15:31.072Z,68.94
2023-02-07T05:17:58.055Z,67.48
2023-02-07T05:20:25.911Z,68.96
2023-02-07T05:22:52.578Z,67.94
2023-02-07T05:25:19.448Z,71.06
2023-02-07T05:27:46.169Z,73.67
2023-02-07T05:30:13.424Z,74.63
2023-02-07T05:32:58.708Z,75.11
2023-02-07T05:35:25.303Z,75.47
2023-02-07T05:37:51.966Z,75.73
2023-02-07T05:40:18.634Z,76.33
2023-02-07T05:42:45.238Z,76.16
2023-02-07T05:45:11.872Z,76.52
2023-02-07T05:47:38.548Z,76.08
2023-02-07T05:50:05.522Z,75.93
2023-02-07T05:52:34.752Z,76.25
2023-02-07T05:55:02.201Z,76.69
2023-02-07T05:57:28.845Z,77.01
2023-02-07T05:59:55.427Z,77.26
2023-02-07T06:02:22.164Z,78.09
2023-02-07T06:04:48.820Z,79.19
2023-02-07T06:07:15.402Z,80.15
2023-02-07T06:09:42.070Z,79.23
2023-02-07T06:12:08.675Z,78.70
2023-02-07T06:14:35.555Z,80.27
2023-02-07T06:17:02.193Z,80.04
2023-02-07T06:19:28.798Z,80.12
2023-02-07T06:21:55.569Z,80.04
2023-02-07T06:24:22.492Z,79.82
2023-02-07T06:26:49.101Z,79.48
2023-02-07T06:29:15.823Z,79.74
2023-02-07T06:31:42.761Z,79.98
2023-02-07T06:34:09.442Z,80.23
2023-02-07T06:36:36.126Z,80.02
2023-02-07T06:39:03.544Z,76.35
2023-02-07T06:41:30.163Z,77.84
2023-02-07T06:43:57.109Z,77.99
2023-02-07T06:46:23.823Z,78.21
2023-02-07T06:48:50.439Z,79.14
2023-02-07T06:51:17.055Z,79.46
2023-02-07T06:53:43.658Z,78.70
2023-02-07T06:56:10.282Z,76.76
2023-02-07T06:58:36.899Z,74.90
2023-02-07T07:01:04.367Z,74.94
2023-02-07T07:03:31.083Z,74.20
2023-02-07T07:05:58.495Z,75.22
2023-02-07T07:08:26.386Z,72.95
2023-02-07T07:10:53.777Z,72.67
2023-02-07T07:13:20.932Z,71.21
2023-02-07T07:15:47.654Z,71.42
2023-02-07T07:18:14.298Z,70.80
2023-02-07T07:20:41.027Z,71.94
2023-02-07T07:23:07.634Z,71.59
2023-02-07T07:25:34.252Z,71.53
2023-02-07T07:28:00.913Z,70.57
2023-02-07T07:30:27.614Z,71.33
2023-02-07T07:32:54.298Z,70.51
2023-02-07T07:35:20.970Z,70.47
2023-02-07T07:37:47.698Z,69.10
2023-02-07T07:40:14.355Z,67.47
2023-02-07T07:42:41.226Z,68.87
2023-02-07T07:45:28.166Z,69.37
2023-02-07T07:47:55.062Z,67.91
2023-02-07T07:50:21.786Z,68.25
2023-02-07T07:52:48.470Z,69.30
2023-02-07T07:55:15.528Z,69.34
2023-02-07T07:57:42.200Z,69.20
2023-02-07T08:00:09.444Z,69.39
2023-02-07T08:02:44.953Z,69.14
2023-02-07T08:05:13.693Z,69.00
2023-02-07T08:07:40.709Z,69.01
2023-02-07T08:10:08.114Z,69.28
2023-02-07T08:12:34.719Z,69.19
2023-02-07T08:15:01.325Z,68.96
2023-02-07T08:17:27.865Z,68.07
2023-02-07T08:19:54.502Z,68.17
2023-02-07T08:22:21.596Z,66.99
2023-02-07T08:24:48.279Z,66.97
2023-02-07T08:27:15.012Z,67.39
2023-02-07T08:29:41.763Z,68.41
2023-02-07T08:32:08.754Z,66.96
2023-02-07T08:34:37.521Z,67.19
2023-02-07T08:37:06.073Z,67.31
2023-02-07T08:39:33.896Z,67.26
2023-02-07T08:42:00.538Z,66.74
2023-02-07T08:44:27.464Z,65.99
2023-02-07T08:46:54.095Z,66.80
2023-02-07T08:49:20.658Z,67.06
2023-02-07T08:51:47.440Z,66.94
2023-02-07T08:54:14.412Z,66.99
2023-02-07T08:56:41.050Z,66.00
2023-02-07T08:59:07.644Z,63.99
2023-02-07T09:01:34.343Z,64.45
2023-02-07T09:04:01.093Z,67.46
2023-02-07T09:06:27.732Z,64.29
2023-02-07T09:08:54.346Z,64.46
2023-02-07T09:11:21.059Z,65.69
2023-02-07T09:13:47.756Z,65.68
2023-02-07T09:16:14.810Z,65.95
2023-02-07T09:18:41.560Z,64.05
2023-02-07T09:21:08.435Z,64.37
2023-02-07T09:23:35.865Z,62.92
2023-02-07T09:26:04.506Z,63.78
2023-02-07T09:28:31.611Z,64.42
2023-02-07T09:30:58.357Z,63.82
2023-02-07T09:33:25.284Z,62.92
2023-02-07T09:35:52.270Z,61.62
2023-02-07T09:38:22.237Z,63.38
2023-02-07T09:40:50.457Z,62.04
2023-02-07T09:43:42.049Z,61.97
2023-02-07T09:46:34.006Z,62.17
2023-02-07T09:49:06.299Z,60.99
2023-02-07T09:51:34.867Z,61.19
2023-02-07T09:54:06.676Z,61.13
2023-02-07T09:56:35.088Z,62.19
2023-02-07T09:59:25.408Z,62.22
2023-02-07T10:01:59.944Z,62.30
2023-02-07T10:04:36.726Z,61.17
2023-02-07T10:07:04.919Z,60.81
2023-02-07T10:09:32.834Z,60.91
2023-02-07T10:12:18.247Z,60.77
2023-02-07T10:15:14.105Z,60.10
2023-02-07T10:17:52.338Z,57.93
2023-02-07T10:20:27.105Z,58.17
2023-02-07T10:23:35.227Z,58.34
2023-02-07T10:26:25.136Z,56.82
2023-02-07T10:29:13.446Z,58.33
2023-02-07T10:31:44.168Z,58.72
2023-02-07T10:34:14.415Z,58.38
2023-02-07T10:36:49.488Z,55.62
2023-02-07T10:39:26.091Z,57.23
2023-02-07T10:41:57.523Z,56.51
2023-02-07T10:44:24.799Z,55.93
2023-02-07T10:46:58.737Z,56.17
2023-02-07T10:49:28.448Z,56.72
2023-02-07T10:51:57.661Z,56.65
2023-02-07T10:54:25.055Z,56.12
2023-02-07T10:56:57.818Z,56.95
2023-02-07T10:59:49.056Z,55.81
2023-02-07T11:02:37.659Z,54.41
2023-02-07T11:05:06.177Z,55.12
2023-02-07T11:07:46.038Z,54.93
2023-02-07T11:10:23.555Z,54.33
2023-02-07T11:12:54.315Z,54.36
2023-02-07T11:15:26.063Z,55.13
2023-02-07T11:17:56.452Z,53.39
2023-02-07T11:20:31.973Z,52.56
2023-02-07T11:22:58.475Z,52.98
2023-02-07T11:25:46.232Z,51.67
2023-02-07T11:28:20.960Z,52.00
2023-02-07T11:30:53.072Z,52.42
2023-02-07T11:33:23.716Z,53.50
2023-02-07T11:36:33.347Z,52.34
2023-02-07T11:39:00.567Z,51.56
2023-02-07T11:41:29.992Z,51.81
2023-02-07T11:44:01.713Z,53.23
2023-02-07T11:46:48.045Z,52.42
2023-02-07T11:49:25.437Z,52.40
2023-02-07T11:51:53.390Z,52.19
2023-02-07T11:54:20.484Z,53.56
2023-02-07T11:56:59.464Z,50.59
2023-02-07T11:59:28.112Z,49.96
2023-02-07T12:01:57.861Z,50.13
2023-02-07T12:04:33.701Z,50.23
2023-02-07T12:07:05.162Z,49.82
2023-02-07T12:09:36.030Z,49.18
2023-02-07T12:12:04.972Z,48.07
2023-02-07T12:14:42.274Z,48.21
2023-02-07T12:17:16.267Z,47.62
2023-02-07T12:20:32.365Z,48.09
2023-02-07T12:23:42.427Z,48.10
2023-02-07T12:26:23.500Z,47.43
2023-02-07T12:29:25.692Z,45.94
2023-02-07T12:31:58.225Z,46.45
2023-02-07T12:34:55.349Z,46.05
2023-02-07T12:37:30.675Z,45.60
2023-02-07T12:40:04.941Z,44.80
2023-02-07T12:42:43.241Z,44.37
2023-02-07T12:45:16.565Z,44.20
2023-02-07T12:48:10.404Z,45.78
2023-02-07T12:50:53.292Z,44.25
2023-02-07T12:53:35.795Z,44.63
2023-02-07T12:56:05.554Z,43.88
2023-02-07T12:59:04.648Z,44.89
2023-02-07T13:01:38.850Z,44.46
2023-02-07T13:04:08.453Z,44.35
2023-02-07T13:06:52.316Z,43.57
2023-02-07T13:09:34.026Z,43.19
2023-02-07T13:12:12.753Z,42.70
2023-02-07T13:15:00.557Z,42.62
2023-02-07T13:17:38.429Z,42.49
2023-02-07T13:20:33.217Z,39.63
2023-02-07T13:23:02.389Z,40.86
2023-02-07T13:25:53.298Z,39.70
2023-02-07T13:28:26.651Z,40.93
2023-02-07T13:30:54.408Z,40.27
2023-02-07T13:33:37.014Z,41.00
2023-02-07T13:36:25.003Z,41.64
2023-02-07T13:39:19.976Z,42.17
2023-02-07T13:41:53.083Z,40.59
2023-02-07T13:44:20.426Z,40.17
2023-02-07T13:46:56.583Z,43.21
2023-02-07T13:49:29.481Z,43.15
2023-02-07T13:52:21.594Z,43.95
2023-02-07T13:55:10.804Z,44.03
2023-02-07T13:58:00.827Z,46.04
2023-02-07T14:00:32.544Z,45.08
2023-02-07T14:03:01.369Z,46.09
2023-02-07T14:05:33.848Z,45.77
2023-02-07T14:08:03.683Z,46.13
2023-02-07T14:10:45.668Z,44.05
2023-02-07T14:13:25.853Z,44.95
2023-02-07T14:16:02.171Z,45.95
2023-02-07T14:18:41.339Z,45.46
2023-02-07T14:21:20.950Z,44.10
2023-02-07T14:24:05.430Z,44.75
2023-02-07T14:26:38.160Z,45.42
2023-02-07T14:29:20.125Z,46.66
2023-02-07T14:31:51.479Z,47.01
2023-02-07T14:34:22.846Z,47.26
2023-02-07T14:36:49.659Z,48.15
2023-02-07T14:39:19.016Z,47.25
2023-02-07T14:41:47.540Z,46.77
2023-02-07T14:44:35.270Z,47.67
2023-02-07T14:47:03.243Z,48.92
2023-02-07T14:49:39.411Z,48.10
2023-02-07T14:52:12.742Z,49.06
2023-02-07T14:54:49.940Z,49.18
2023-02-07T14:57:20.202Z,49.92
2023-02-07T15:00:00.435Z,49.73
2023-02-07T15:02:45.217Z,49.16
2023-02-07T15:05:34.322Z,48.72
2023-02-07T15:08:03.762Z,50.53
2023-02-07T15:10:32.761Z,50.38
2023-02-07T15:13:00.145Z,51.50
2023-02-07T15:15:29.714Z,50.68
2023-02-07T15:17:59.306Z,50.24
2023-02-07T15:20:30.938Z,50.03
2023-02-07T15:23:01.022Z,50.22
2023-02-07T15:25:28.115Z,49.03
2023-02-07T15:28:05.600Z,50.67
2023-02-07T15:30:33.775Z,49.71
2023-02-07T15:33:00.407Z,49.84
2023-02-07T15:35:29.946Z,50.55
2023-02-07T15:38:14.488Z,50.70
2023-02-07T15:40:41.346Z,50.78
2023-02-07T15:43:23.968Z,50.89
2023-02-07T15:46:02.310Z,50.36
2023-02-07T15:48:29.150Z,49.81
2023-02-07T15:50:57.690Z,50.24
2023-02-07T15:53:26.717Z,49.93
2023-02-07T15:55:53.958Z,50.12
2023-02-07T15:58:26.783Z,49.34
2023-02-07T16:00:53.819Z,50.09
2023-02-07T16:03:22.694Z,49.91
2023-02-07T16:05:49.877Z,50.41
2023-02-07T16:08:37.450Z,49.42
2023-02-07T16:11:25.889Z,50.12
2023-02-07T16:14:01.070Z,48.87
2023-02-07T16:16:29.888Z,49.74
2023-02-07T16:19:33.306Z,49.57
2023-02-07T16:22:12.585Z,49.76
2023-02-07T16:24:42.621Z,50.09
2023-02-07T16:27:17.456Z,50.22
2023-02-07T16:29:44.463Z,50.22
2023-02-07T16:32:14.734Z,51.23
2023-02-07T16:34:53.940Z,51.98
2023-02-07T16:37:25.078Z,51.85
2023-02-07T16:39:53.133Z,51.07
2023-02-07T16:42:19.723Z,51.73
2023-02-07T16:44:47.106Z,52.83
2023-02-07T16:47:14.437Z,52.96
2023-02-07T16:49:43.494Z,52.47
2023-02-07T16:52:10.156Z,52.81
2023-02-07T16:54:37.000Z,53.48
2023-02-07T16:57:04.137Z,52.71
2023-02-07T16:59:30.809Z,52.80
2023-02-07T17:01:57.689Z,53.16
2023-02-07T17:04:24.521Z,52.91
2023-02-07T17:06:51.563Z,53.43
2023-02-07T17:09:25.376Z,52.82
2023-02-07T17:11:53.808Z,52.96
2023-02-07T17:14:21.430Z,52.88
2023-02-07T17:16:48.157Z,52.41
2023-02-07T17:19:14.856Z,51.55
2023-02-07T17:21:42.595Z,51.96
2023-02-07T17:24:10.485Z,52.58
2023-02-07T17:26:38.460Z,52.54
2023-02-07T17:29:05.757Z,52.62
2023-02-07T17:31:32.477Z,53.19
2023-02-07T17:33:59.485Z,54.72
2023-02-07T17:36:26.352Z,53.78
2023-02-07T17:38:53.807Z,54.11
2023-02-07T17:41:21.848Z,54.79
2023-02-07T17:43:48.464Z,54.49
2023-02-07T17:46:20.436Z,54.11
2023-02-07T17:48:49.047Z,55.06
2023-02-07T17:51:16.411Z,54.44
2023-02-07T17:53:43.035Z,53.86
2023-02-07T17:56:21.695Z,53.47
2023-02-07T17:58:48.360Z,54.54
2023-02-07T18:01:19.101Z,55.05
2023-02-07T18:03:46.797Z,54.67
2023-02-07T18:06:15.032Z,54.88
2023-02-07T18:08:42.157Z,54.84
2023-02-07T18:11:11.519Z,54.04
2023-02-07T18:13:39.004Z,54.31
2023-02-07T18:16:06.365Z,54.67
2023-02-07T18:18:32.990Z,54.34
2023-02-07T18:20:59.732Z,54.22
2023-02-07T18:23:28.471Z,54.44
2023-02-07T18:25:55.069Z,54.29
2023-02-07T18:28:21.671Z,55.55
2023-02-07T18:30:48.415Z,56.71
2023-02-07T18:33:17.036Z,55.74
2023-02-07T18:35:43.625Z,54.58
2023-02-07T18:38:10.296Z,54.52
2023-02-07T18:40:40.470Z,54.62
2023-02-07T18:43:07.538Z,55.24
2023-02-07T18:45:36.524Z,54.70
2023-02-07T18:48:03.816Z,55.26
2023-02-07T18:50:30.506Z,55.55
2023-02-07T18:52:57.133Z,58.51
2023-02-07T18:55:23.730Z,57.20
2023-02-07T18:57:50.447Z,56.50
2023-02-07T19:00:17.699Z,56.27
2023-02-07T19:02:44.707Z,56.41
2023-02-07T19:05:11.530Z,56.59
2023-02-07T19:07:38.179Z,57.17
2023-02-07T19:10:05.081Z,58.24
2023-02-07T19:12:31.763Z,57.87
2023-02-07T19:14:58.786Z,58.20
2023-02-07T19:17:25.590Z,58.89
2023-02-07T19:19:52.657Z,58.15
2023-02-07T19:22:30.122Z,57.93
2023-02-07T19:25:01.681Z,58.31
2023-02-07T19:27:30.573Z,57.07
2023-02-07T19:29:57.217Z,57.30
2023-02-07T19:32:24.313Z,57.40
2023-02-07T19:34:51.001Z,57.59
2023-02-07T19:37:17.721Z,58.10
2023-02-07T19:39:46.141Z,58.32
2023-02-07T19:42:12.889Z,58.34
2023-02-07T19:44:40.003Z,57.80
2023-02-07T19:47:06.630Z,59.67
2023-02-07T19:49:33.409Z,57.71
2023-02-07T19:52:00.388Z,58.08
2023-02-07T19:54:26.990Z,57.77
2023-02-07T19:56:53.530Z,59.53
2023-02-07T19:59:20.161Z,59.71
2023-02-07T20:01:46.739Z,59.25
2023-02-07T20:04:13.805Z,59.82
2023-02-07T20:06:40.538Z,60.97
2023-02-07T20:09:07.580Z,60.30
2023-02-07T20:11:34.674Z,59.97
2023-02-07T20:14:03.566Z,60.28
2023-02-07T20:16:33.190Z,60.54
2023-02-07T20:19:00.198Z,60.26
2023-02-07T20:21:28.807Z,60.52
2023-02-07T20:23:56.555Z,59.75
2023-02-07T20:26:36.509Z,61.11
2023-02-07T20:29:06.754Z,60.23
2023-02-07T20:31:33.473Z,60.46
2023-02-07T20:34:03.668Z,60.04
2023-02-07T20:36:31.576Z,60.37
2023-02-07T20:38:59.924Z,61.31
2023-02-07T20:41:31.436Z,60.17
2023-02-07T20:44:05.134Z,60.62
2023-02-07T20:46:33.468Z,59.51
2023-02-07T20:49:03.360Z,60.12
2023-02-07T20:51:30.291Z,59.95
2023-02-07T20:53:59.059Z,59.77
2023-02-07T20:56:26.338Z,60.75
2023-02-07T20:58:54.390Z,60.17
2023-02-07T21:01:27.434Z,61.37
2023-02-07T21:03:56.412Z,59.55
2023-02-07T21:06:24.436Z,59.82
2023-02-07T21:08:59.505Z,59.80
2023-02-07T21:11:49.798Z,60.77
2023-02-07T21:14:30.911Z,60.68
2023-02-07T21:17:01.361Z,59.98
2023-02-07T21:19:28.769Z,60.24
2023-02-07T21:21:55.485Z,60.21
2023-02-07T21:24:23.108Z,59.67
2023-02-07T21:26:53.647Z,59.42
2023-02-07T21:29:20.858Z,58.25
2023-02-07T21:31:47.948Z,58.82
2023-02-07T21:34:21.310Z,58.89
2023-02-07T21:36:48.940Z,57.43
2023-02-07T21:39:16.378Z,57.31
2023-02-07T21:41:44.542Z,57.66
2023-02-07T21:44:12.644Z,57.41
2023-02-07T21:46:42.492Z,56.68
2023-02-07T21:49:14.606Z,56.88
2023-02-07T21:51:42.449Z,55.79
2023-02-07T21:54:09.494Z,55.92
2023-02-07T21:56:38.512Z,56.51
2023-02-07T21:59:14.620Z,56.07
2023-02-07T22:01:42.492Z,56.43
2023-02-07T22:04:13.019Z,55.72
2023-02-07T22:06:42.254Z,57.32
2023-02-07T22:09:11.716Z,57.89
2023-02-07T22:11:38.518Z,56.77
2023-02-07T22:14:05.412Z,56.34
2023-02-07T22:16:32.981Z,57.58
2023-02-07T22:19:01.069Z,57.71
2023-02-07T22:21:33.395Z,57.59
2023-02-07T22:24:00.368Z,56.04
2023-02-07T22:26:30.123Z,55.57
2023-02-07T22:28:56.989Z,55.99
2023-02-07T22:31:26.332Z,55.68
2023-02-07T22:33:54.304Z,55.86
2023-02-07T22:36:26.604Z,55.01
2023-02-07T22:38:53.712Z,55.10
2023-02-07T22:41:21.005Z,55.27
2023-02-07T22:43:49.360Z,54.97
2023-02-07T22:46:18.676Z,55.73
2023-02-07T22:48:45.947Z,56.53
2023-02-07T22:51:24.364Z,55.40
2023-02-07T22:53:54.374Z,55.68
2023-02-07T22:56:21.065Z,55.61
2023-02-07T22:58:47.975Z,55.96
2023-02-07T23:01:24.686Z,54.68
2023-02-07T23:03:52.366Z,54.14
2023-02-07T23:06:19.881Z,54.18
2023-02-07T23:08:47.641Z,53.93
2023-02-07T23:11:15.611Z,54.33
2023-02-07T23:13:42.764Z,54.45
2023-02-07T23:16:17.120Z,54.05
2023-02-07T23:18:43.921Z,54.01
2023-02-07T23:21:12.181Z,53.38
2023-02-07T23:23:39.340Z,53.40
2023-02-07T23:26:08.203Z,54.34
2023-02-07T23:28:35.368Z,53.35
2023-02-07T23:31:02.123Z,53.42
2023-02-07T23:33:29.192Z,54.53
2023-02-07T23:35:56.355Z,53.25
2023-02-07T23:38:23.153Z,52.21
2023-02-07T23:40:49.775Z,52.59
2023-02-07T23:43:16.452Z,53.45
2023-02-07T23:45:43.016Z,53.18
2023-02-07T23:48:09.733Z,52.89
2023-02-07T23:50:36.414Z,52.35
2023-02-07T23:53:03.047Z,53.00
2023-02-07T23:55:30.124Z,53.14
2023-02-07T23:57:56.817Z,53.67
